sensor_id;sensor_type;location;lat;lon;timestamp;P1;durP1;ratioP1;P2;durP2;ratioP2
33279;SDS011;20403;43.114;12.434;2023-09-19T00:01:41;17.15;;;5.60;;
33279;SDS011;20403;43.114;12.434;2023-09-19T00:04:09;14.43;;;5.65;;
33279;SDS011;20403;43.114;12.434;2023-09-19T00:06:35;22.08;;;5.30;;
33279;SDS011;20403;43.114;12.434;2023-09-19T00:09:01;17.20;;;5.22;;
33279;SDS011;20403;43.114;12.434;2023-09-19T00:11:27;15.45;;;4.97;;
33279;SDS011;20403;43.114;12.434;2023-09-19T00:13:54;19.42;;;5.32;;
33279;SDS011;20403;43.114;12.434;2023-09-19T00:16:19;9.90;;;4.63;;
33279;SDS011;20403;43.114;12.434;2023-09-19T00:18:45;12.57;;;5.32;;
33279;SDS011;20403;43.114;12.434;2023-09-19T00:21:11;19.20;;;5.35;;
33279;SDS011;20403;43.114;12.434;2023-09-19T00:23:38;12.13;;;5.60;;
33279;SDS011;20403;43.114;12.434;2023-09-19T00:26:03;14.43;;;5.45;;
33279;SDS011;20403;43.114;12.434;2023-09-19T00:28:29;11.68;;;5.13;;
33279;SDS011;20403;43.114;12.434;2023-09-19T00:30:55;22.80;;;5.25;;
33279;SDS011;20403;43.114;12.434;2023-09-19T00:33:21;13.43;;;5.15;;
33279;SDS011;20403;43.114;12.434;2023-09-19T00:35:47;15.88;;;4.97;;
33279;SDS011;20403;43.114;12.434;2023-09-19T00:38:17;23.23;;;4.70;;
33279;SDS011;20403;43.114;12.434;2023-09-19T00:40:46;14.70;;;5.30;;
33279;SDS011;20403;43.114;12.434;2023-09-19T00:43:12;17.83;;;5.22;;
33279;SDS011;20403;43.114;12.434;2023-09-19T00:45:38;14.20;;;5.10;;
33279;SDS011;20403;43.114;12.434;2023-09-19T00:48:07;20.50;;;5.40;;
33279;SDS011;20403;43.114;12.434;2023-09-19T00:50:34;19.02;;;4.90;;
33279;SDS011;20403;43.114;12.434;2023-09-19T00:53:00;12.23;;;4.88;;
33279;SDS011;20403;43.114;12.434;2023-09-19T00:55:32;19.35;;;4.93;;
33279;SDS011;20403;43.114;12.434;2023-09-19T00:57:59;19.10;;;5.10;;
33279;SDS011;20403;43.114;12.434;2023-09-19T01:00:25;16.52;;;5.57;;
33279;SDS011;20403;43.114;12.434;2023-09-19T01:02:50;16.08;;;4.93;;
33279;SDS011;20403;43.114;12.434;2023-09-19T01:05:16;16.27;;;4.88;;
33279;SDS011;20403;43.114;12.434;2023-09-19T01:07:42;9.38;;;4.72;;
33279;SDS011;20403;43.114;12.434;2023-09-19T01:10:10;14.05;;;4.72;;
33279;SDS011;20403;43.114;12.434;2023-09-19T01:18:05;12.50;;;4.80;;
33279;SDS011;20403;43.114;12.434;2023-09-19T01:23:39;23.08;;;5.22;;
33279;SDS011;20403;43.114;12.434;2023-09-19T01:31:54;12.93;;;5.03;;
33279;SDS011;20403;43.114;12.434;2023-09-19T01:34:26;13.43;;;5.03;;
33279;SDS011;20403;43.114;12.434;2023-09-19T01:36:51;16.45;;;6.13;;
33279;SDS011;20403;43.114;12.434;2023-09-19T01:39:17;19.98;;;5.65;;
33279;SDS011;20403;43.114;12.434;2023-09-19T01:41:50;15.55;;;5.40;;
33279;SDS011;20403;43.114;12.434;2023-09-19T01:47:34;17.40;;;5.35;;
33279;SDS011;20403;43.114;12.434;2023-09-19T01:50:07;14.40;;;5.60;;
33279;SDS011;20403;43.114;12.434;2023-09-19T01:52:47;17.38;;;5.85;;
33279;SDS011;20403;43.114;12.434;2023-09-19T01:55:19;19.35;;;5.70;;
33279;SDS011;20403;43.114;12.434;2023-09-19T02:00:31;15.10;;;4.93;;
33279;SDS011;20403;43.114;12.434;2023-09-19T02:03:00;15.38;;;5.30;;
33279;SDS011;20403;43.114;12.434;2023-09-19T02:05:27;17.77;;;5.43;;
33279;SDS011;20403;43.114;12.434;2023-09-19T02:07:53;17.05;;;5.82;;
33279;SDS011;20403;43.114;12.434;2023-09-19T02:10:18;12.43;;;4.95;;
33279;SDS011;20403;43.114;12.434;2023-09-19T02:12:44;10.93;;;5.18;;
33279;SDS011;20403;43.114;12.434;2023-09-19T02:15:10;17.10;;;5.75;;
33279;SDS011;20403;43.114;12.434;2023-09-19T02:17:36;14.35;;;5.25;;
33279;SDS011;20403;43.114;12.434;2023-09-19T02:20:01;16.65;;;5.60;;
33279;SDS011;20403;43.114;12.434;2023-09-19T02:22:28;14.25;;;5.43;;
33279;SDS011;20403;43.114;12.434;2023-09-19T02:24:54;20.45;;;5.88;;
33279;SDS011;20403;43.114;12.434;2023-09-19T02:27:23;17.27;;;6.90;;
33279;SDS011;20403;43.114;12.434;2023-09-19T02:29:48;15.27;;;6.05;;
33279;SDS011;20403;43.114;12.434;2023-09-19T02:32:14;11.77;;;6.10;;
33279;SDS011;20403;43.114;12.434;2023-09-19T02:34:40;20.00;;;6.03;;
33279;SDS011;20403;43.114;12.434;2023-09-19T02:37:06;19.40;;;6.47;;
33279;SDS011;20403;43.114;12.434;2023-09-19T02:39:33;10.30;;;5.60;;
33279;SDS011;20403;43.114;12.434;2023-09-19T02:41:59;15.35;;;5.90;;
33279;SDS011;20403;43.114;12.434;2023-09-19T02:44:25;17.38;;;5.78;;
33279;SDS011;20403;43.114;12.434;2023-09-19T02:46:50;15.73;;;5.13;;
33279;SDS011;20403;43.114;12.434;2023-09-19T02:49:16;18.70;;;5.68;;
33279;SDS011;20403;43.114;12.434;2023-09-19T02:51:43;19.17;;;5.82;;
33279;SDS011;20403;43.114;12.434;2023-09-19T02:54:09;15.27;;;6.65;;
33279;SDS011;20403;43.114;12.434;2023-09-19T02:56:35;19.83;;;6.03;;
33279;SDS011;20403;43.114;12.434;2023-09-19T02:59:01;23.40;;;5.72;;
33279;SDS011;20403;43.114;12.434;2023-09-19T03:01:27;15.05;;;5.43;;
33279;SDS011;20403;43.114;12.434;2023-09-19T03:03:53;12.10;;;4.82;;
33279;SDS011;20403;43.114;12.434;2023-09-19T03:06:19;10.75;;;4.80;;
33279;SDS011;20403;43.114;12.434;2023-09-19T03:08:45;13.52;;;5.20;;
33279;SDS011;20403;43.114;12.434;2023-09-19T03:11:11;18.60;;;5.45;;
33279;SDS011;20403;43.114;12.434;2023-09-19T03:13:39;21.42;;;5.50;;
33279;SDS011;20403;43.114;12.434;2023-09-19T03:16:06;12.30;;;5.63;;
33279;SDS011;20403;43.114;12.434;2023-09-19T03:18:35;14.70;;;5.38;;
33279;SDS011;20403;43.114;12.434;2023-09-19T03:21:01;14.50;;;5.32;;
33279;SDS011;20403;43.114;12.434;2023-09-19T03:23:26;21.05;;;5.32;;
33279;SDS011;20403;43.114;12.434;2023-09-19T03:25:53;17.48;;;5.47;;
33279;SDS011;20403;43.114;12.434;2023-09-19T03:28:20;12.10;;;5.22;;
33279;SDS011;20403;43.114;12.434;2023-09-19T03:30:56;18.45;;;6.03;;
33279;SDS011;20403;43.114;12.434;2023-09-19T03:33:29;16.65;;;5.72;;
33279;SDS011;20403;43.114;12.434;2023-09-19T03:35:56;17.55;;;5.68;;
33279;SDS011;20403;43.114;12.434;2023-09-19T03:38:23;8.30;;;5.00;;
33279;SDS011;20403;43.114;12.434;2023-09-19T03:40:48;16.77;;;5.85;;
33279;SDS011;20403;43.114;12.434;2023-09-19T03:43:14;13.65;;;5.38;;
33279;SDS011;20403;43.114;12.434;2023-09-19T03:45:40;22.90;;;6.18;;
33279;SDS011;20403;43.114;12.434;2023-09-19T03:48:09;15.18;;;5.72;;
33279;SDS011;20403;43.114;12.434;2023-09-19T03:50:35;12.45;;;5.65;;
33279;SDS011;20403;43.114;12.434;2023-09-19T03:53:01;15.40;;;5.72;;
33279;SDS011;20403;43.114;12.434;2023-09-19T03:55:27;12.95;;;5.57;;
33279;SDS011;20403;43.114;12.434;2023-09-19T03:57:53;10.48;;;5.15;;
33279;SDS011;20403;43.114;12.434;2023-09-19T04:00:18;11.15;;;5.53;;
33279;SDS011;20403;43.114;12.434;2023-09-19T04:02:51;17.63;;;6.18;;
33279;SDS011;20403;43.114;12.434;2023-09-19T04:07:43;10.57;;;5.45;;
33279;SDS011;20403;43.114;12.434;2023-09-19T04:10:08;17.13;;;5.50;;
33279;SDS011;20403;43.114;12.434;2023-09-19T04:12:36;13.90;;;5.75;;
33279;SDS011;20403;43.114;12.434;2023-09-19T04:15:04;17.50;;;6.43;;
33279;SDS011;20403;43.114;12.434;2023-09-19T04:17:30;15.82;;;5.70;;
33279;SDS011;20403;43.114;12.434;2023-09-19T04:19:58;18.88;;;5.82;;
33279;SDS011;20403;43.114;12.434;2023-09-19T04:22:23;14.75;;;5.90;;
33279;SDS011;20403;43.114;12.434;2023-09-19T04:24:49;12.43;;;5.93;;
33279;SDS011;20403;43.114;12.434;2023-09-19T04:27:14;16.00;;;6.03;;
33279;SDS011;20403;43.114;12.434;2023-09-19T04:29:39;12.10;;;5.70;;
33279;SDS011;20403;43.114;12.434;2023-09-19T04:32:06;16.25;;;5.65;;
33279;SDS011;20403;43.114;12.434;2023-09-19T04:34:32;10.30;;;5.38;;
33279;SDS011;20403;43.114;12.434;2023-09-19T04:36:59;14.95;;;6.25;;
33279;SDS011;20403;43.114;12.434;2023-09-19T04:39:25;15.15;;;6.05;;
33279;SDS011;20403;43.114;12.434;2023-09-19T04:41:52;24.80;;;7.60;;
33279;SDS011;20403;43.114;12.434;2023-09-19T04:44:18;16.77;;;6.18;;
33279;SDS011;20403;43.114;12.434;2023-09-19T04:46:43;16.67;;;5.80;;
33279;SDS011;20403;43.114;12.434;2023-09-19T04:49:10;22.17;;;7.20;;
33279;SDS011;20403;43.114;12.434;2023-09-19T04:51:36;16.73;;;7.03;;
33279;SDS011;20403;43.114;12.434;2023-09-19T04:54:01;20.38;;;6.65;;
33279;SDS011;20403;43.114;12.434;2023-09-19T04:56:27;18.17;;;6.60;;
33279;SDS011;20403;43.114;12.434;2023-09-19T04:58:57;23.60;;;7.13;;
33279;SDS011;20403;43.114;12.434;2023-09-19T05:01:25;28.15;;;7.30;;
33279;SDS011;20403;43.114;12.434;2023-09-19T05:03:52;16.25;;;6.88;;
33279;SDS011;20403;43.114;12.434;2023-09-19T05:06:20;19.88;;;6.43;;
33279;SDS011;20403;43.114;12.434;2023-09-19T05:08:46;24.70;;;7.32;;
33279;SDS011;20403;43.114;12.434;2023-09-19T05:11:16;18.25;;;7.13;;
33279;SDS011;20403;43.114;12.434;2023-09-19T05:13:45;17.00;;;6.68;;
33279;SDS011;20403;43.114;12.434;2023-09-19T05:16:10;23.27;;;7.68;;
33279;SDS011;20403;43.114;12.434;2023-09-19T05:18:36;25.05;;;7.63;;
33279;SDS011;20403;43.114;12.434;2023-09-19T05:21:02;21.70;;;6.53;;
33279;SDS011;20403;43.114;12.434;2023-09-19T05:23:27;15.13;;;6.88;;
33279;SDS011;20403;43.114;12.434;2023-09-19T05:25:53;27.80;;;7.10;;
33279;SDS011;20403;43.114;12.434;2023-09-19T05:28:19;22.00;;;7.00;;
33279;SDS011;20403;43.114;12.434;2023-09-19T05:30:45;13.73;;;6.55;;
33279;SDS011;20403;43.114;12.434;2023-09-19T05:33:11;19.73;;;6.63;;
33279;SDS011;20403;43.114;12.434;2023-09-19T05:35:37;20.80;;;7.25;;
33279;SDS011;20403;43.114;12.434;2023-09-19T05:38:04;20.92;;;6.50;;
33279;SDS011;20403;43.114;12.434;2023-09-19T05:40:33;14.77;;;6.05;;
33279;SDS011;20403;43.114;12.434;2023-09-19T05:43:00;20.95;;;7.38;;
33279;SDS011;20403;43.114;12.434;2023-09-19T05:45:26;22.95;;;6.75;;
33279;SDS011;20403;43.114;12.434;2023-09-19T05:47:52;22.98;;;6.47;;
33279;SDS011;20403;43.114;12.434;2023-09-19T05:50:29;23.10;;;7.10;;
33279;SDS011;20403;43.114;12.434;2023-09-19T05:52:54;30.65;;;7.90;;
33279;SDS011;20403;43.114;12.434;2023-09-19T05:55:21;22.08;;;7.30;;
33279;SDS011;20403;43.114;12.434;2023-09-19T05:57:49;23.30;;;7.65;;
33279;SDS011;20403;43.114;12.434;2023-09-19T06:00:17;27.20;;;7.57;;
33279;SDS011;20403;43.114;12.434;2023-09-19T06:02:53;21.23;;;8.15;;
33279;SDS011;20403;43.114;12.434;2023-09-19T06:05:20;17.00;;;6.80;;
33279;SDS011;20403;43.114;12.434;2023-09-19T06:07:46;16.73;;;7.03;;
33279;SDS011;20403;43.114;12.434;2023-09-19T06:10:12;20.23;;;6.25;;
33279;SDS011;20403;43.114;12.434;2023-09-19T06:12:44;23.15;;;7.28;;
33279;SDS011;20403;43.114;12.434;2023-09-19T06:15:10;15.23;;;6.43;;
33279;SDS011;20403;43.114;12.434;2023-09-19T06:17:48;18.00;;;6.72;;
33279;SDS011;20403;43.114;12.434;2023-09-19T06:20:15;21.60;;;7.80;;
33279;SDS011;20403;43.114;12.434;2023-09-19T06:22:42;20.40;;;8.00;;
33279;SDS011;20403;43.114;12.434;2023-09-19T06:25:08;25.88;;;7.30;;
33279;SDS011;20403;43.114;12.434;2023-09-19T06:27:38;22.77;;;7.90;;
33279;SDS011;20403;43.114;12.434;2023-09-19T06:30:07;20.77;;;7.13;;
33279;SDS011;20403;43.114;12.434;2023-09-19T06:32:34;21.85;;;7.00;;
33279;SDS011;20403;43.114;12.434;2023-09-19T06:34:59;23.67;;;7.32;;
33279;SDS011;20403;43.114;12.434;2023-09-19T06:37:27;22.35;;;6.88;;
33279;SDS011;20403;43.114;12.434;2023-09-19T06:39:53;14.68;;;6.53;;
33279;SDS011;20403;43.114;12.434;2023-09-19T06:42:18;21.85;;;7.25;;
33279;SDS011;20403;43.114;12.434;2023-09-19T06:44:44;20.73;;;8.18;;
33279;SDS011;20403;43.114;12.434;2023-09-19T06:47:10;19.30;;;7.25;;
33279;SDS011;20403;43.114;12.434;2023-09-19T06:49:35;20.40;;;7.20;;
33279;SDS011;20403;43.114;12.434;2023-09-19T06:52:01;20.00;;;6.97;;
33279;SDS011;20403;43.114;12.434;2023-09-19T06:54:27;18.38;;;8.40;;
33279;SDS011;20403;43.114;12.434;2023-09-19T06:56:56;15.80;;;7.60;;
33279;SDS011;20403;43.114;12.434;2023-09-19T06:59:24;32.85;;;8.77;;
33279;SDS011;20403;43.114;12.434;2023-09-19T07:01:49;34.70;;;7.95;;
33279;SDS011;20403;43.114;12.434;2023-09-19T07:04:16;25.35;;;8.55;;
33279;SDS011;20403;43.114;12.434;2023-09-19T07:06:42;21.25;;;7.97;;
33279;SDS011;20403;43.114;12.434;2023-09-19T07:09:07;27.70;;;8.18;;
33279;SDS011;20403;43.114;12.434;2023-09-19T07:11:33;30.45;;;9.02;;
33279;SDS011;20403;43.114;12.434;2023-09-19T07:13:59;28.73;;;8.52;;
33279;SDS011;20403;43.114;12.434;2023-09-19T07:16:28;23.23;;;8.02;;
33279;SDS011;20403;43.114;12.434;2023-09-19T07:18:55;23.35;;;8.23;;
33279;SDS011;20403;43.114;12.434;2023-09-19T07:21:21;21.95;;;7.53;;
33279;SDS011;20403;43.114;12.434;2023-09-19T07:23:47;24.23;;;7.80;;
33279;SDS011;20403;43.114;12.434;2023-09-19T07:26:13;23.02;;;7.50;;
33279;SDS011;20403;43.114;12.434;2023-09-19T07:28:38;19.55;;;7.93;;
33279;SDS011;20403;43.114;12.434;2023-09-19T07:31:04;23.85;;;8.25;;
33279;SDS011;20403;43.114;12.434;2023-09-19T07:33:30;22.27;;;8.50;;
33279;SDS011;20403;43.114;12.434;2023-09-19T07:35:56;21.45;;;8.43;;
33279;SDS011;20403;43.114;12.434;2023-09-19T07:38:21;20.35;;;9.10;;
33279;SDS011;20403;43.114;12.434;2023-09-19T07:40:47;19.33;;;8.32;;
33279;SDS011;20403;43.114;12.434;2023-09-19T07:43:13;15.35;;;7.03;;
33279;SDS011;20403;43.114;12.434;2023-09-19T07:45:38;28.33;;;9.23;;
33279;SDS011;20403;43.114;12.434;2023-09-19T07:48:04;22.30;;;8.68;;
33279;SDS011;20403;43.114;12.434;2023-09-19T07:50:32;21.75;;;7.65;;
33279;SDS011;20403;43.114;12.434;2023-09-19T07:53:01;16.80;;;7.05;;
33279;SDS011;20403;43.114;12.434;2023-09-19T07:55:29;19.45;;;7.70;;
33279;SDS011;20403;43.114;12.434;2023-09-19T07:57:55;18.33;;;7.35;;
33279;SDS011;20403;43.114;12.434;2023-09-19T08:00:21;18.33;;;8.77;;
33279;SDS011;20403;43.114;12.434;2023-09-19T08:02:47;27.75;;;9.15;;
33279;SDS011;20403;43.114;12.434;2023-09-19T08:05:17;22.23;;;8.02;;
33279;SDS011;20403;43.114;12.434;2023-09-19T08:07:44;22.33;;;8.93;;
33279;SDS011;20403;43.114;12.434;2023-09-19T08:10:14;18.52;;;7.93;;
33279;SDS011;20403;43.114;12.434;2023-09-19T08:12:41;29.10;;;9.48;;
33279;SDS011;20403;43.114;12.434;2023-09-19T08:17:38;27.45;;;9.38;;
33279;SDS011;20403;43.114;12.434;2023-09-19T08:20:04;20.83;;;8.27;;
33279;SDS011;20403;43.114;12.434;2023-09-19T08:22:30;30.65;;;9.75;;
33279;SDS011;20403;43.114;12.434;2023-09-19T08:24:57;37.22;;;10.52;;
33279;SDS011;20403;43.114;12.434;2023-09-19T08:27:23;28.35;;;9.55;;
33279;SDS011;20403;43.114;12.434;2023-09-19T08:29:52;29.40;;;9.48;;
33279;SDS011;20403;43.114;12.434;2023-09-19T08:32:17;21.30;;;9.13;;
33279;SDS011;20403;43.114;12.434;2023-09-19T08:34:48;27.30;;;8.82;;
33279;SDS011;20403;43.114;12.434;2023-09-19T08:37:14;28.65;;;9.18;;
33279;SDS011;20403;43.114;12.434;2023-09-19T08:39:40;19.88;;;8.45;;
33279;SDS011;20403;43.114;12.434;2023-09-19T08:42:06;21.60;;;8.38;;
33279;SDS011;20403;43.114;12.434;2023-09-19T08:44:35;19.40;;;6.80;;
33279;SDS011;20403;43.114;12.434;2023-09-19T08:47:11;27.08;;;7.45;;
33279;SDS011;20403;43.114;12.434;2023-09-19T08:50:00;25.40;;;7.50;;
33279;SDS011;20403;43.114;12.434;2023-09-19T08:52:46;17.13;;;7.43;;
33279;SDS011;20403;43.114;12.434;2023-09-19T08:55:16;20.00;;;7.20;;
33279;SDS011;20403;43.114;12.434;2023-09-19T08:57:47;17.70;;;7.05;;
33279;SDS011;20403;43.114;12.434;2023-09-19T09:00:15;22.35;;;7.65;;
33279;SDS011;20403;43.114;12.434;2023-09-19T09:02:45;22.35;;;6.80;;
33279;SDS011;20403;43.114;12.434;2023-09-19T09:05:12;14.93;;;6.22;;
33279;SDS011;20403;43.114;12.434;2023-09-19T09:07:40;23.27;;;7.18;;
33279;SDS011;20403;43.114;12.434;2023-09-19T09:10:06;20.15;;;7.05;;
33279;SDS011;20403;43.114;12.434;2023-09-19T09:12:32;17.65;;;7.07;;
33279;SDS011;20403;43.114;12.434;2023-09-19T09:14:59;20.55;;;7.65;;
33279;SDS011;20403;43.114;12.434;2023-09-19T09:17:25;24.00;;;6.60;;
33279;SDS011;20403;43.114;12.434;2023-09-19T09:19:54;21.55;;;7.15;;
33279;SDS011;20403;43.114;12.434;2023-09-19T09:22:20;26.13;;;7.50;;
33279;SDS011;20403;43.114;12.434;2023-09-19T09:24:52;23.25;;;7.43;;
33279;SDS011;20403;43.114;12.434;2023-09-19T09:27:23;24.20;;;6.50;;
33279;SDS011;20403;43.114;12.434;2023-09-19T09:29:49;21.50;;;7.45;;
33279;SDS011;20403;43.114;12.434;2023-09-19T09:32:19;24.50;;;7.25;;
33279;SDS011;20403;43.114;12.434;2023-09-19T09:34:46;23.38;;;7.25;;
33279;SDS011;20403;43.114;12.434;2023-09-19T09:37:16;37.60;;;7.43;;
33279;SDS011;20403;43.114;12.434;2023-09-19T09:39:55;29.92;;;7.43;;
33279;SDS011;20403;43.114;12.434;2023-09-19T09:45:29;17.95;;;6.47;;
33279;SDS011;20403;43.114;12.434;2023-09-19T09:48:00;18.15;;;6.05;;
33279;SDS011;20403;43.114;12.434;2023-09-19T09:50:32;18.15;;;6.20;;
33279;SDS011;20403;43.114;12.434;2023-09-19T09:53:31;18.15;;;5.63;;
33279;SDS011;20403;43.114;12.434;2023-09-19T09:56:06;16.75;;;5.20;;
33279;SDS011;20403;43.114;12.434;2023-09-19T09:58:49;17.85;;;5.63;;
33279;SDS011;20403;43.114;12.434;2023-09-19T10:01:16;19.17;;;6.25;;
33279;SDS011;20403;43.114;12.434;2023-09-19T10:03:43;20.38;;;6.00;;
33279;SDS011;20403;43.114;12.434;2023-09-19T10:06:13;18.80;;;6.03;;
33279;SDS011;20403;43.114;12.434;2023-09-19T10:08:59;18.83;;;5.85;;
33279;SDS011;20403;43.114;12.434;2023-09-19T10:11:30;20.15;;;6.05;;
33279;SDS011;20403;43.114;12.434;2023-09-19T10:13:57;22.85;;;5.78;;
33279;SDS011;20403;43.114;12.434;2023-09-19T10:16:26;21.05;;;5.15;;
33279;SDS011;20403;43.114;12.434;2023-09-19T10:18:56;18.85;;;5.70;;
33279;SDS011;20403;43.114;12.434;2023-09-19T10:21:27;28.23;;;6.10;;
33279;SDS011;20403;43.114;12.434;2023-09-19T10:23:55;20.83;;;5.78;;
33279;SDS011;20403;43.114;12.434;2023-09-19T10:26:24;18.08;;;4.70;;
33279;SDS011;20403;43.114;12.434;2023-09-19T10:28:56;16.90;;;4.65;;
33279;SDS011;20403;43.114;12.434;2023-09-19T10:31:24;28.42;;;5.55;;
33279;SDS011;20403;43.114;12.434;2023-09-19T10:33:52;20.33;;;4.65;;
33279;SDS011;20403;43.114;12.434;2023-09-19T10:36:20;20.25;;;4.93;;
33279;SDS011;20403;43.114;12.434;2023-09-19T10:38:50;25.33;;;4.78;;
33279;SDS011;20403;43.114;12.434;2023-09-19T10:41:20;27.33;;;5.15;;
33279;SDS011;20403;43.114;12.434;2023-09-19T10:43:48;15.30;;;4.72;;
33279;SDS011;20403;43.114;12.434;2023-09-19T10:46:14;15.65;;;3.97;;
33279;SDS011;20403;43.114;12.434;2023-09-19T10:48:40;20.85;;;5.32;;
33279;SDS011;20403;43.114;12.434;2023-09-19T10:51:09;17.45;;;4.90;;
33279;SDS011;20403;43.114;12.434;2023-09-19T10:56:09;17.77;;;4.50;;
33279;SDS011;20403;43.114;12.434;2023-09-19T10:58:42;16.75;;;4.30;;
33279;SDS011;20403;43.114;12.434;2023-09-19T11:01:09;13.95;;;3.95;;
33279;SDS011;20403;43.114;12.434;2023-09-19T11:03:43;16.23;;;4.60;;
33279;SDS011;20403;43.114;12.434;2023-09-19T11:08:58;18.52;;;4.53;;
33279;SDS011;20403;43.114;12.434;2023-09-19T11:14:14;22.80;;;5.18;;
33279;SDS011;20403;43.114;12.434;2023-09-19T11:30:42;12.82;;;4.30;;
33279;SDS011;20403;43.114;12.434;2023-09-19T11:33:17;12.88;;;4.03;;
33279;SDS011;20403;43.114;12.434;2023-09-19T11:43:53;23.10;;;4.85;;
33279;SDS011;20403;43.114;12.434;2023-09-19T11:46:34;23.63;;;4.63;;
33279;SDS011;20403;43.114;12.434;2023-09-19T11:49:16;18.92;;;4.32;;
33279;SDS011;20403;43.114;12.434;2023-09-19T11:51:48;15.43;;;4.43;;
33279;SDS011;20403;43.114;12.434;2023-09-19T11:54:16;15.95;;;3.97;;
33279;SDS011;20403;43.114;12.434;2023-09-19T11:56:49;18.08;;;4.68;;
33279;SDS011;20403;43.114;12.434;2023-09-19T11:59:26;14.57;;;4.38;;
33279;SDS011;20403;43.114;12.434;2023-09-19T12:01:55;14.63;;;4.13;;
33279;SDS011;20403;43.114;12.434;2023-09-19T12:04:39;13.80;;;4.00;;
33279;SDS011;20403;43.114;12.434;2023-09-19T12:07:08;15.38;;;4.20;;
33279;SDS011;20403;43.114;12.434;2023-09-19T12:09:44;18.38;;;4.10;;
33279;SDS011;20403;43.114;12.434;2023-09-19T12:12:25;12.38;;;4.22;;
33279;SDS011;20403;43.114;12.434;2023-09-19T12:14:55;17.55;;;4.30;;
33279;SDS011;20403;43.114;12.434;2023-09-19T12:17:37;13.57;;;4.47;;
33279;SDS011;20403;43.114;12.434;2023-09-19T12:20:08;13.77;;;3.88;;
33279;SDS011;20403;43.114;12.434;2023-09-19T12:22:43;23.40;;;4.75;;
33279;SDS011;20403;43.114;12.434;2023-09-19T12:25:10;22.05;;;4.28;;
33279;SDS011;20403;43.114;12.434;2023-09-19T12:30:09;15.20;;;4.10;;
33279;SDS011;20403;43.114;12.434;2023-09-19T12:32:35;13.68;;;4.05;;
33279;SDS011;20403;43.114;12.434;2023-09-19T12:35:01;24.23;;;3.88;;
33279;SDS011;20403;43.114;12.434;2023-09-19T12:37:32;16.13;;;3.63;;
33279;SDS011;20403;43.114;12.434;2023-09-19T12:40:07;12.05;;;3.67;;
33279;SDS011;20403;43.114;12.434;2023-09-19T12:42:43;13.60;;;3.70;;
33279;SDS011;20403;43.114;12.434;2023-09-19T12:45:10;14.63;;;4.07;;
33279;SDS011;20403;43.114;12.434;2023-09-19T12:47:38;30.55;;;4.90;;
33279;SDS011;20403;43.114;12.434;2023-09-19T12:50:06;18.25;;;4.10;;
33279;SDS011;20403;43.114;12.434;2023-09-19T12:52:50;21.08;;;4.18;;
33279;SDS011;20403;43.114;12.434;2023-09-19T12:58:08;25.98;;;4.47;;
33279;SDS011;20403;43.114;12.434;2023-09-19T13:00:43;65.53;;;7.65;;
33279;SDS011;20403;43.114;12.434;2023-09-19T13:06:14;21.30;;;3.92;;
33279;SDS011;20403;43.114;12.434;2023-09-19T13:08:35;14.88;;;3.60;;
33279;SDS011;20403;43.114;12.434;2023-09-19T13:11:09;14.10;;;3.88;;
33279;SDS011;20403;43.114;12.434;2023-09-19T13:13:38;34.03;;;4.00;;
33279;SDS011;20403;43.114;12.434;2023-09-19T13:16:06;14.05;;;4.28;;
33279;SDS011;20403;43.114;12.434;2023-09-19T13:18:43;12.73;;;3.80;;
33279;SDS011;20403;43.114;12.434;2023-09-19T13:21:10;18.27;;;4.07;;
33279;SDS011;20403;43.114;12.434;2023-09-19T13:23:52;10.77;;;3.80;;
33279;SDS011;20403;43.114;12.434;2023-09-19T13:26:27;15.25;;;3.97;;
33279;SDS011;20403;43.114;12.434;2023-09-19T13:28:53;13.50;;;3.50;;
33279;SDS011;20403;43.114;12.434;2023-09-19T13:31:19;16.00;;;3.58;;
33279;SDS011;20403;43.114;12.434;2023-09-19T13:33:45;17.73;;;4.03;;
33279;SDS011;20403;43.114;12.434;2023-09-19T13:36:12;16.23;;;3.60;;
33279;SDS011;20403;43.114;12.434;2023-09-19T13:38:41;11.48;;;3.30;;
33279;SDS011;20403;43.114;12.434;2023-09-19T13:41:10;13.07;;;3.53;;
33279;SDS011;20403;43.114;12.434;2023-09-19T13:43:38;12.02;;;3.85;;
33279;SDS011;20403;43.114;12.434;2023-09-19T13:46:04;15.63;;;4.13;;
33279;SDS011;20403;43.114;12.434;2023-09-19T13:48:32;14.55;;;4.30;;
33279;SDS011;20403;43.114;12.434;2023-09-19T13:51:00;10.07;;;4.10;;
33279;SDS011;20403;43.114;12.434;2023-09-19T13:53:27;12.07;;;3.35;;
33279;SDS011;20403;43.114;12.434;2023-09-19T13:55:52;9.40;;;3.35;;
33279;SDS011;20403;43.114;12.434;2023-09-19T13:58:18;16.08;;;3.28;;
33279;SDS011;20403;43.114;12.434;2023-09-19T14:00:43;13.95;;;3.30;;
33279;SDS011;20403;43.114;12.434;2023-09-19T14:03:08;12.07;;;3.35;;
33279;SDS011;20403;43.114;12.434;2023-09-19T14:05:35;10.93;;;3.70;;
33279;SDS011;20403;43.114;12.434;2023-09-19T14:08:01;12.23;;;3.60;;
33279;SDS011;20403;43.114;12.434;2023-09-19T14:10:28;11.77;;;3.33;;
33279;SDS011;20403;43.114;12.434;2023-09-19T14:12:55;10.02;;;3.25;;
33279;SDS011;20403;43.114;12.434;2023-09-19T14:15:20;13.35;;;3.40;;
33279;SDS011;20403;43.114;12.434;2023-09-19T14:17:54;13.07;;;3.83;;
33279;SDS011;20403;43.114;12.434;2023-09-19T14:20:20;6.85;;;2.90;;
33279;SDS011;20403;43.114;12.434;2023-09-19T14:22:47;13.18;;;3.63;;
33279;SDS011;20403;43.114;12.434;2023-09-19T14:25:13;12.10;;;3.13;;
33279;SDS011;20403;43.114;12.434;2023-09-19T14:27:38;12.50;;;3.17;;
33279;SDS011;20403;43.114;12.434;2023-09-19T14:30:04;16.63;;;3.30;;
33279;SDS011;20403;43.114;12.434;2023-09-19T14:32:31;10.68;;;2.97;;
33279;SDS011;20403;43.114;12.434;2023-09-19T14:34:56;13.15;;;3.13;;
33279;SDS011;20403;43.114;12.434;2023-09-19T14:37:22;8.32;;;3.20;;
33279;SDS011;20403;43.114;12.434;2023-09-19T14:39:47;14.02;;;3.08;;
33279;SDS011;20403;43.114;12.434;2023-09-19T14:42:13;10.82;;;2.47;;
33279;SDS011;20403;43.114;12.434;2023-09-19T14:44:42;10.15;;;2.92;;
33279;SDS011;20403;43.114;12.434;2023-09-19T14:47:08;8.38;;;2.30;;
33279;SDS011;20403;43.114;12.434;2023-09-19T14:49:34;10.73;;;2.83;;
33279;SDS011;20403;43.114;12.434;2023-09-19T14:52:00;14.23;;;3.10;;
33279;SDS011;20403;43.114;12.434;2023-09-19T14:54:29;11.32;;;2.70;;
33279;SDS011;20403;43.114;12.434;2023-09-19T14:56:55;11.25;;;2.78;;
33279;SDS011;20403;43.114;12.434;2023-09-19T14:59:30;12.48;;;2.78;;
33279;SDS011;20403;43.114;12.434;2023-09-19T15:01:56;8.15;;;2.53;;
33279;SDS011;20403;43.114;12.434;2023-09-19T15:04:22;14.60;;;2.65;;
33279;SDS011;20403;43.114;12.434;2023-09-19T15:06:47;11.73;;;2.60;;
33279;SDS011;20403;43.114;12.434;2023-09-19T15:09:13;8.13;;;2.70;;
33279;SDS011;20403;43.114;12.434;2023-09-19T15:11:39;11.43;;;2.95;;
33279;SDS011;20403;43.114;12.434;2023-09-19T15:14:04;11.60;;;2.72;;
33279;SDS011;20403;43.114;12.434;2023-09-19T15:16:29;10.65;;;3.20;;
33279;SDS011;20403;43.114;12.434;2023-09-19T15:18:55;9.02;;;2.95;;
33279;SDS011;20403;43.114;12.434;2023-09-19T15:21:20;13.75;;;2.88;;
33279;SDS011;20403;43.114;12.434;2023-09-19T15:23:46;9.10;;;2.85;;
33279;SDS011;20403;43.114;12.434;2023-09-19T15:26:12;8.20;;;2.80;;
33279;SDS011;20403;43.114;12.434;2023-09-19T15:28:39;11.27;;;3.20;;
33279;SDS011;20403;43.114;12.434;2023-09-19T15:31:06;10.45;;;3.35;;
33279;SDS011;20403;43.114;12.434;2023-09-19T15:33:33;9.48;;;3.08;;